sensor_id;sensor_type;location;lat;lon;timestamp;P1;durP1;ratioP1;P2;durP2;ratioP2
11823;SDS011;5969;50.780;7.726;2023-07-09T00:00:53;5.63;;;4.63;;
11823;SDS011;5969;50.780;7.726;2023-07-09T00:03:21;6.50;;;5.00;;
11823;SDS011;5969;50.780;7.726;2023-07-09T00:05:48;7.15;;;5.45;;
11823;SDS011;5969;50.780;7.726;2023-07-09T00:08:21;5.80;;;5.20;;
11823;SDS011;5969;50.780;7.726;2023-07-09T00:10:53;6.70;;;5.25;;
11823;SDS011;5969;50.780;7.726;2023-07-09T00:13:21;7.97;;;5.15;;
11823;SDS011;5969;50.780;7.726;2023-07-09T00:15:47;6.22;;;5.00;;
11823;SDS011;5969;50.780;7.726;2023-07-09T00:18:15;5.60;;;4.75;;
11823;SDS011;5969;50.780;7.726;2023-07-09T00:20:42;5.70;;;5.13;;
11823;SDS011;5969;50.780;7.726;2023-07-09T00:23:09;6.70;;;5.45;;
11823;SDS011;5969;50.780;7.726;2023-07-09T00:25:38;9.95;;;5.50;;
11823;SDS011;5969;50.780;7.726;2023-07-09T00:28:13;7.28;;;4.90;;
11823;SDS011;5969;50.780;7.726;2023-07-09T00:30:40;5.72;;;5.13;;
11823;SDS011;5969;50.780;7.726;2023-07-09T00:33:09;5.70;;;4.32;;
11823;SDS011;5969;50.780;7.726;2023-07-09T00:35:39;7.65;;;4.97;;
11823;SDS011;5969;50.780;7.726;2023-07-09T00:38:08;7.05;;;5.55;;
11823;SDS011;5969;50.780;7.726;2023-07-09T00:40:44;5.78;;;5.18;;
11823;SDS011;5969;50.780;7.726;2023-07-09T00:43:15;6.00;;;4.82;;
11823;SDS011;5969;50.780;7.726;2023-07-09T00:45:43;7.05;;;5.20;;
11823;SDS011;5969;50.780;7.726;2023-07-09T00:48:12;7.05;;;4.95;;
11823;SDS011;5969;50.780;7.726;2023-07-09T00:50:42;6.35;;;4.90;;
11823;SDS011;5969;50.780;7.726;2023-07-09T00:53:15;7.72;;;4.95;;
11823;SDS011;5969;50.780;7.726;2023-07-09T00:55:48;5.20;;;4.70;;
11823;SDS011;5969;50.780;7.726;2023-07-09T00:58:22;6.70;;;4.80;;
11823;SDS011;5969;50.780;7.726;2023-07-09T01:00:53;5.38;;;4.82;;
11823;SDS011;5969;50.780;7.726;2023-07-09T01:03:25;6.57;;;5.13;;
11823;SDS011;5969;50.780;7.726;2023-07-09T01:05:58;6.18;;;5.07;;
11823;SDS011;5969;50.780;7.726;2023-07-09T01:08:25;5.50;;;5.00;;
11823;SDS011;5969;50.780;7.726;2023-07-09T01:10:56;6.95;;;5.07;;
11823;SDS011;5969;50.780;7.726;2023-07-09T01:13:25;5.45;;;4.95;;
11823;SDS011;5969;50.780;7.726;2023-07-09T01:15:53;5.85;;;5.03;;
11823;SDS011;5969;50.780;7.726;2023-07-09T01:18:21;5.18;;;4.68;;
11823;SDS011;5969;50.780;7.726;2023-07-09T01:20:49;7.72;;;4.65;;
11823;SDS011;5969;50.780;7.726;2023-07-09T01:23:20;6.45;;;5.43;;
11823;SDS011;5969;50.780;7.726;2023-07-09T01:25:51;8.07;;;5.55;;
11823;SDS011;5969;50.780;7.726;2023-07-09T01:28:19;6.50;;;5.15;;
11823;SDS011;5969;50.780;7.726;2023-07-09T01:30:47;5.40;;;4.90;;
11823;SDS011;5969;50.780;7.726;2023-07-09T01:33:18;6.90;;;5.22;;
11823;SDS011;5969;50.780;7.726;2023-07-09T01:35:47;6.40;;;5.18;;
11823;SDS011;5969;50.780;7.726;2023-07-09T01:38:13;6.63;;;5.60;;
11823;SDS011;5969;50.780;7.726;2023-07-09T01:40:42;6.28;;;5.20;;
11823;SDS011;5969;50.780;7.726;2023-07-09T01:43:11;7.13;;;4.95;;
11823;SDS011;5969;50.780;7.726;2023-07-09T01:45:38;6.93;;;4.90;;
11823;SDS011;5969;50.780;7.726;2023-07-09T01:48:05;6.13;;;5.53;;
11823;SDS011;5969;50.780;7.726;2023-07-09T01:50:40;6.55;;;4.97;;
11823;SDS011;5969;50.780;7.726;2023-07-09T01:53:08;6.85;;;5.07;;
11823;SDS011;5969;50.780;7.726;2023-07-09T01:55:35;6.03;;;5.40;;
11823;SDS011;5969;50.780;7.726;2023-07-09T01:58:04;6.75;;;5.15;;
11823;SDS011;5969;50.780;7.726;2023-07-09T02:00:32;6.32;;;5.03;;
11823;SDS011;5969;50.780;7.726;2023-07-09T02:03:00;7.57;;;5.47;;
11823;SDS011;5969;50.780;7.726;2023-07-09T02:05:28;8.07;;;5.00;;
11823;SDS011;5969;50.780;7.726;2023-07-09T02:07:57;6.80;;;4.97;;
11823;SDS011;5969;50.780;7.726;2023-07-09T02:10:24;8.35;;;4.78;;
11823;SDS011;5969;50.780;7.726;2023-07-09T02:12:50;6.07;;;5.03;;
11823;SDS011;5969;50.780;7.726;2023-07-09T02:15:19;5.60;;;5.10;;
11823;SDS011;5969;50.780;7.726;2023-07-09T02:17:46;6.18;;;5.13;;
11823;SDS011;5969;50.780;7.726;2023-07-09T02:20:13;5.28;;;4.53;;
11823;SDS011;5969;50.780;7.726;2023-07-09T02:22:40;6.22;;;5.38;;
11823;SDS011;5969;50.780;7.726;2023-07-09T02:25:07;7.72;;;5.53;;
11823;SDS011;5969;50.780;7.726;2023-07-09T02:27:34;5.90;;;5.32;;
11823;SDS011;5969;50.780;7.726;2023-07-09T02:30:02;6.10;;;4.90;;
11823;SDS011;5969;50.780;7.726;2023-07-09T02:32:31;6.10;;;5.25;;
11823;SDS011;5969;50.780;7.726;2023-07-09T02:34:58;6.97;;;5.03;;
11823;SDS011;5969;50.780;7.726;2023-07-09T02:37:25;5.78;;;5.07;;
11823;SDS011;5969;50.780;7.726;2023-07-09T02:39:53;5.93;;;5.32;;
11823;SDS011;5969;50.780;7.726;2023-07-09T02:42:21;7.07;;;5.18;;
11823;SDS011;5969;50.780;7.726;2023-07-09T02:44:50;5.80;;;5.22;;
11823;SDS011;5969;50.780;7.726;2023-07-09T02:47:18;7.13;;;5.13;;
11823;SDS011;5969;50.780;7.726;2023-07-09T02:49:46;6.75;;;5.20;;
11823;SDS011;5969;50.780;7.726;2023-07-09T02:52:13;6.75;;;4.97;;
11823;SDS011;5969;50.780;7.726;2023-07-09T02:54:40;7.15;;;5.28;;
11823;SDS011;5969;50.780;7.726;2023-07-09T02:57:07;8.13;;;5.13;;
11823;SDS011;5969;50.780;7.726;2023-07-09T02:59:34;5.38;;;4.80;;
11823;SDS011;5969;50.780;7.726;2023-07-09T03:02:01;5.50;;;5.00;;
11823;SDS011;5969;50.780;7.726;2023-07-09T03:04:28;6.00;;;5.10;;
11823;SDS011;5969;50.780;7.726;2023-07-09T03:06:58;7.40;;;5.45;;
11823;SDS011;5969;50.780;7.726;2023-07-09T03:09:25;6.55;;;5.30;;
11823;SDS011;5969;50.780;7.726;2023-07-09T03:11:52;6.60;;;5.20;;
11823;SDS011;5969;50.780;7.726;2023-07-09T03:14:19;7.53;;;5.45;;
11823;SDS011;5969;50.780;7.726;2023-07-09T03:16:46;6.03;;;4.68;;
11823;SDS011;5969;50.780;7.726;2023-07-09T03:19:13;7.78;;;5.38;;
11823;SDS011;5969;50.780;7.726;2023-07-09T03:21:39;5.28;;;4.70;;
11823;SDS011;5969;50.780;7.726;2023-07-09T03:24:08;7.07;;;5.72;;
11823;SDS011;5969;50.780;7.726;2023-07-09T03:26:34;6.70;;;5.47;;
11823;SDS011;5969;50.780;7.726;2023-07-09T03:29:02;6.97;;;5.60;;
11823;SDS011;5969;50.780;7.726;2023-07-09T03:31:29;7.15;;;5.53;;
11823;SDS011;5969;50.780;7.726;2023-07-09T03:34:00;6.85;;;4.95;;
11823;SDS011;5969;50.780;7.726;2023-07-09T03:36:26;5.45;;;4.88;;
11823;SDS011;5969;50.780;7.726;2023-07-09T03:38:53;5.97;;;5.22;;
11823;SDS011;5969;50.780;7.726;2023-07-09T03:41:21;6.45;;;5.78;;
11823;SDS011;5969;50.780;7.726;2023-07-09T03:43:48;5.78;;;5.18;;
11823;SDS011;5969;50.780;7.726;2023-07-09T03:46:17;6.65;;;4.47;;
11823;SDS011;5969;50.780;7.726;2023-07-09T03:48:44;7.30;;;5.07;;
11823;SDS011;5969;50.780;7.726;2023-07-09T03:51:11;6.22;;;5.68;;
11823;SDS011;5969;50.780;7.726;2023-07-09T03:53:38;6.35;;;5.75;;
11823;SDS011;5969;50.780;7.726;2023-07-09T03:56:04;6.68;;;5.53;;
11823;SDS011;5969;50.780;7.726;2023-07-09T03:58:33;6.68;;;5.00;;
11823;SDS011;5969;50.780;7.726;2023-07-09T04:00:59;9.90;;;5.80;;
11823;SDS011;5969;50.780;7.726;2023-07-09T04:03:26;6.15;;;5.60;;
11823;SDS011;5969;50.780;7.726;2023-07-09T04:05:53;7.07;;;5.32;;
11823;SDS011;5969;50.780;7.726;2023-07-09T04:08:20;5.70;;;5.13;;
11823;SDS011;5969;50.780;7.726;2023-07-09T04:10:46;8.23;;;4.95;;
11823;SDS011;5969;50.780;7.726;2023-07-09T04:13:13;4.93;;;4.43;;
11823;SDS011;5969;50.780;7.726;2023-07-09T04:15:41;5.43;;;4.85;;
11823;SDS011;5969;50.780;7.726;2023-07-09T04:18:09;5.43;;;4.22;;
11823;SDS011;5969;50.780;7.726;2023-07-09T04:20:35;5.93;;;4.65;;
11823;SDS011;5969;50.780;7.726;2023-07-09T04:23:02;5.45;;;4.50;;
11823;SDS011;5969;50.780;7.726;2023-07-09T04:25:29;5.68;;;4.25;;
11823;SDS011;5969;50.780;7.726;2023-07-09T04:27:56;5.13;;;4.63;;
11823;SDS011;5969;50.780;7.726;2023-07-09T04:30:24;5.13;;;4.45;;
11823;SDS011;5969;50.780;7.726;2023-07-09T04:32:52;6.20;;;4.80;;
11823;SDS011;5969;50.780;7.726;2023-07-09T04:35:19;7.18;;;5.57;;
11823;SDS011;5969;50.780;7.726;2023-07-09T04:37:46;6.65;;;5.40;;
11823;SDS011;5969;50.780;7.726;2023-07-09T04:40:13;7.05;;;5.00;;
11823;SDS011;5969;50.780;7.726;2023-07-09T04:42:41;6.47;;;5.50;;
11823;SDS011;5969;50.780;7.726;2023-07-09T04:45:09;7.45;;;5.28;;
11823;SDS011;5969;50.780;7.726;2023-07-09T04:47:37;6.57;;;5.13;;
11823;SDS011;5969;50.780;7.726;2023-07-09T04:50:07;6.43;;;5.40;;
11823;SDS011;5969;50.780;7.726;2023-07-09T04:52:35;6.88;;;5.22;;
11823;SDS011;5969;50.780;7.726;2023-07-09T04:55:02;6.43;;;5.07;;
11823;SDS011;5969;50.780;7.726;2023-07-09T04:57:30;7.80;;;5.47;;
11823;SDS011;5969;50.780;7.726;2023-07-09T04:59:57;6.90;;;5.07;;
11823;SDS011;5969;50.780;7.726;2023-07-09T05:02:23;7.50;;;5.20;;
11823;SDS011;5969;50.780;7.726;2023-07-09T05:04:50;6.45;;;4.85;;
11823;SDS011;5969;50.780;7.726;2023-07-09T05:07:19;6.97;;;5.22;;
11823;SDS011;5969;50.780;7.726;2023-07-09T05:09:46;5.95;;;4.70;;
11823;SDS011;5969;50.780;7.726;2023-07-09T05:12:13;5.65;;;4.50;;
11823;SDS011;5969;50.780;7.726;2023-07-09T05:14:40;5.97;;;4.80;;
11823;SDS011;5969;50.780;7.726;2023-07-09T05:17:07;8.77;;;5.65;;
11823;SDS011;5969;50.780;7.726;2023-07-09T05:19:35;8.55;;;5.05;;
11823;SDS011;5969;50.780;7.726;2023-07-09T05:22:02;6.18;;;5.30;;
11823;SDS011;5969;50.780;7.726;2023-07-09T05:24:30;6.95;;;4.65;;
11823;SDS011;5969;50.780;7.726;2023-07-09T05:26:57;6.53;;;4.78;;
11823;SDS011;5969;50.780;7.726;2023-07-09T05:29:24;7.22;;;5.25;;
11823;SDS011;5969;50.780;7.726;2023-07-09T05:31:51;5.72;;;4.60;;
11823;SDS011;5969;50.780;7.726;2023-07-09T05:34:18;7.65;;;4.85;;
11823;SDS011;5969;50.780;7.726;2023-07-09T05:36:46;5.30;;;4.78;;
11823;SDS011;5969;50.780;7.726;2023-07-09T05:39:13;8.55;;;5.15;;
11823;SDS011;5969;50.780;7.726;2023-07-09T05:41:42;8.00;;;5.05;;
11823;SDS011;5969;50.780;7.726;2023-07-09T05:44:09;7.78;;;5.07;;
11823;SDS011;5969;50.780;7.726;2023-07-09T05:46:36;5.10;;;4.60;;
11823;SDS011;5969;50.780;7.726;2023-07-09T05:49:03;5.78;;;4.78;;
11823;SDS011;5969;50.780;7.726;2023-07-09T05:51:30;6.65;;;4.78;;
11823;SDS011;5969;50.780;7.726;2023-07-09T05:53:57;6.68;;;4.60;;
11823;SDS011;5969;50.780;7.726;2023-07-09T05:56:24;7.03;;;5.28;;
11823;SDS011;5969;50.780;7.726;2023-07-09T05:58:53;5.53;;;4.60;;
11823;SDS011;5969;50.780;7.726;2023-07-09T06:01:21;5.38;;;4.55;;
11823;SDS011;5969;50.780;7.726;2023-07-09T06:03:48;5.63;;;4.97;;
11823;SDS011;5969;50.780;7.726;2023-07-09T06:06:15;4.50;;;4.10;;
11823;SDS011;5969;50.780;7.726;2023-07-09T06:08:43;6.95;;;5.35;;
11823;SDS011;5969;50.780;7.726;2023-07-09T06:11:10;5.57;;;4.80;;
11823;SDS011;5969;50.780;7.726;2023-07-09T06:13:37;5.22;;;4.65;;
11823;SDS011;5969;50.780;7.726;2023-07-09T06:16:05;7.25;;;4.68;;
11823;SDS011;5969;50.780;7.726;2023-07-09T06:18:32;5.20;;;4.43;;
11823;SDS011;5969;50.780;7.726;2023-07-09T06:21:00;5.00;;;4.50;;
11823;SDS011;5969;50.780;7.726;2023-07-09T06:23:28;6.57;;;4.65;;
11823;SDS011;5969;50.780;7.726;2023-07-09T06:25:55;5.97;;;4.70;;
11823;SDS011;5969;50.780;7.726;2023-07-09T06:28:23;5.07;;;4.57;;
11823;SDS011;5969;50.780;7.726;2023-07-09T06:30:51;7.53;;;4.90;;
11823;SDS011;5969;50.780;7.726;2023-07-09T06:33:19;6.00;;;4.57;;
11823;SDS011;5969;50.780;7.726;2023-07-09T06:35:47;6.10;;;4.63;;
11823;SDS011;5969;50.780;7.726;2023-07-09T06:38:15;5.78;;;4.22;;
11823;SDS011;5969;50.780;7.726;2023-07-09T06:40:42;6.63;;;4.47;;
11823;SDS011;5969;50.780;7.726;2023-07-09T06:43:08;5.80;;;4.80;;
11823;SDS011;5969;50.780;7.726;2023-07-09T06:45:36;7.50;;;5.15;;
11823;SDS011;5969;50.780;7.726;2023-07-09T06:48:03;6.90;;;4.57;;
11823;SDS011;5969;50.780;7.726;2023-07-09T06:50:33;6.95;;;4.72;;
11823;SDS011;5969;50.780;7.726;2023-07-09T06:53:00;7.10;;;4.65;;
11823;SDS011;5969;50.780;7.726;2023-07-09T06:55:27;6.82;;;4.47;;
11823;SDS011;5969;50.780;7.726;2023-07-09T06:57:54;4.82;;;4.32;;
11823;SDS011;5969;50.780;7.726;2023-07-09T07:00:21;7.10;;;4.53;;
11823;SDS011;5969;50.780;7.726;2023-07-09T07:02:48;5.63;;;4.78;;
11823;SDS011;5969;50.780;7.726;2023-07-09T07:05:18;6.47;;;4.63;;
11823;SDS011;5969;50.780;7.726;2023-07-09T07:07:47;5.68;;;5.07;;
11823;SDS011;5969;50.780;7.726;2023-07-09T07:10:14;6.07;;;4.53;;
11823;SDS011;5969;50.780;7.726;2023-07-09T07:12:42;5.60;;;4.85;;
11823;SDS011;5969;50.780;7.726;2023-07-09T07:15:10;8.23;;;5.25;;
11823;SDS011;5969;50.780;7.726;2023-07-09T07:17:41;6.15;;;4.13;;
11823;SDS011;5969;50.780;7.726;2023-07-09T07:20:09;5.47;;;4.68;;
11823;SDS011;5969;50.780;7.726;2023-07-09T07:22:37;5.55;;;4.60;;
11823;SDS011;5969;50.780;7.726;2023-07-09T07:25:06;6.82;;;4.65;;
11823;SDS011;5969;50.780;7.726;2023-07-09T07:27:37;5.85;;;4.68;;
11823;SDS011;5969;50.780;7.726;2023-07-09T07:30:05;7.53;;;4.78;;
11823;SDS011;5969;50.780;7.726;2023-07-09T07:32:34;5.45;;;4.60;;
11823;SDS011;5969;50.780;7.726;2023-07-09T07:35:02;5.47;;;3.90;;
11823;SDS011;5969;50.780;7.726;2023-07-09T07:37:29;6.25;;;4.65;;
11823;SDS011;5969;50.780;7.726;2023-07-09T07:39:56;7.45;;;4.68;;
11823;SDS011;5969;50.780;7.726;2023-07-09T07:42:24;5.93;;;4.30;;
11823;SDS011;5969;50.780;7.726;2023-07-09T07:44:52;5.65;;;4.53;;
11823;SDS011;5969;50.780;7.726;2023-07-09T07:47:19;5.30;;;4.75;;
11823;SDS011;5969;50.780;7.726;2023-07-09T07:49:46;5.60;;;4.88;;
11823;SDS011;5969;50.780;7.726;2023-07-09T07:52:12;7.93;;;4.95;;
11823;SDS011;5969;50.780;7.726;2023-07-09T07:54:40;5.55;;;4.32;;
11823;SDS011;5969;50.780;7.726;2023-07-09T07:57:07;5.35;;;4.65;;
11823;SDS011;5969;50.780;7.726;2023-07-09T07:59:37;6.18;;;4.88;;
11823;SDS011;5969;50.780;7.726;2023-07-09T08:02:05;5.75;;;4.72;;
11823;SDS011;5969;50.780;7.726;2023-07-09T08:04:36;6.82;;;4.68;;
11823;SDS011;5969;50.780;7.726;2023-07-09T08:07:03;5.03;;;4.53;;
11823;SDS011;5969;50.780;7.726;2023-07-09T08:09:30;6.15;;;5.03;;
11823;SDS011;5969;50.780;7.726;2023-07-09T08:11:57;6.13;;;4.13;;
11823;SDS011;5969;50.780;7.726;2023-07-09T08:14:24;7.03;;;4.40;;
11823;SDS011;5969;50.780;7.726;2023-07-09T08:16:52;8.30;;;5.10;;
11823;SDS011;5969;50.780;7.726;2023-07-09T08:19:19;6.22;;;4.18;;
11823;SDS011;5969;50.780;7.726;2023-07-09T08:21:46;5.47;;;4.45;;
11823;SDS011;5969;50.780;7.726;2023-07-09T08:24:17;5.22;;;4.10;;
11823;SDS011;5969;50.780;7.726;2023-07-09T08:26:45;14.68;;;5.22;;
11823;SDS011;5969;50.780;7.726;2023-07-09T08:29:24;4.88;;;4.25;;
11823;SDS011;5969;50.780;7.726;2023-07-09T08:32:18;5.03;;;4.35;;
11823;SDS011;5969;50.780;7.726;2023-07-09T08:34:45;5.22;;;4.50;;
11823;SDS011;5969;50.780;7.726;2023-07-09T08:37:12;5.03;;;4.45;;
11823;SDS011;5969;50.780;7.726;2023-07-09T08:39:39;4.82;;;4.20;;
11823;SDS011;5969;50.780;7.726;2023-07-09T08:42:09;5.88;;;4.80;;
11823;SDS011;5969;50.780;7.726;2023-07-09T08:44:48;5.32;;;4.20;;
11823;SDS011;5969;50.780;7.726;2023-07-09T08:47:31;4.80;;;4.13;;
11823;SDS011;5969;50.780;7.726;2023-07-09T08:50:05;5.68;;;4.47;;
11823;SDS011;5969;50.780;7.726;2023-07-09T08:52:39;5.10;;;4.63;;
11823;SDS011;5969;50.780;7.726;2023-07-09T08:55:09;6.93;;;4.22;;
11823;SDS011;5969;50.780;7.726;2023-07-09T08:57:40;7.55;;;4.75;;
11823;SDS011;5969;50.780;7.726;2023-07-09T09:00:13;6.05;;;4.70;;
11823;SDS011;5969;50.780;7.726;2023-07-09T09:02:46;5.90;;;3.80;;
11823;SDS011;5969;50.780;7.726;2023-07-09T09:05:24;4.68;;;4.20;;
11823;SDS011;5969;50.780;7.726;2023-07-09T09:07:55;5.80;;;4.53;;
11823;SDS011;5969;50.780;7.726;2023-07-09T09:10:42;4.47;;;3.92;;
11823;SDS011;5969;50.780;7.726;2023-07-09T09:13:23;9.55;;;4.57;;
11823;SDS011;5969;50.780;7.726;2023-07-09T09:18:36;8.23;;;4.13;;
11823;SDS011;5969;50.780;7.726;2023-07-09T09:21:20;5.97;;;3.90;;
11823;SDS011;5969;50.780;7.726;2023-07-09T09:23:51;5.40;;;3.70;;
11823;SDS011;5969;50.780;7.726;2023-07-09T09:26:24;4.22;;;3.83;;
11823;SDS011;5969;50.780;7.726;2023-07-09T09:29:09;5.40;;;3.72;;
11823;SDS011;5969;50.780;7.726;2023-07-09T09:31:38;6.80;;;4.00;;
11823;SDS011;5969;50.780;7.726;2023-07-09T09:37:35;6.30;;;3.58;;
11823;SDS011;5969;50.780;7.726;2023-07-09T09:40:02;5.05;;;3.70;;
11823;SDS011;5969;50.780;7.726;2023-07-09T09:42:51;4.22;;;3.20;;
11823;SDS011;5969;50.780;7.726;2023-07-09T09:45:20;6.18;;;3.38;;
11823;SDS011;5969;50.780;7.726;2023-07-09T09:47:58;6.25;;;3.72;;
11823;SDS011;5969;50.780;7.726;2023-07-09T09:50:41;5.97;;;3.90;;
11823;SDS011;5969;50.780;7.726;2023-07-09T09:53:12;6.07;;;3.60;;
11823;SDS011;5969;50.780;7.726;2023-07-09T09:55:48;6.13;;;3.70;;
11823;SDS011;5969;50.780;7.726;2023-07-09T09:58:17;4.65;;;4.03;;
11823;SDS011;5969;50.780;7.726;2023-07-09T10:00:48;4.57;;;3.80;;
11823;SDS011;5969;50.780;7.726;2023-07-09T10:03:20;7.38;;;3.90;;
11823;SDS011;5969;50.780;7.726;2023-07-09T10:05:48;5.75;;;3.72;;
11823;SDS011;5969;50.780;7.726;2023-07-09T10:08:22;5.72;;;3.55;;
11823;SDS011;5969;50.780;7.726;2023-07-09T10:11:12;5.25;;;4.50;;
11823;SDS011;5969;50.780;7.726;2023-07-09T10:13:44;6.78;;;3.60;;
11823;SDS011;5969;50.780;7.726;2023-07-09T10:16:15;5.72;;;3.53;;
11823;SDS011;5969;50.780;7.726;2023-07-09T10:18:49;4.95;;;3.50;;
11823;SDS011;5969;50.780;7.726;2023-07-09T10:21:23;4.90;;;3.95;;
11823;SDS011;5969;50.780;7.726;2023-07-09T10:24:00;5.50;;;3.53;;
11823;SDS011;5969;50.780;7.726;2023-07-09T10:26:36;4.53;;;3.63;;
11823;SDS011;5969;50.780;7.726;2023-07-09T10:29:21;5.82;;;3.38;;
11823;SDS011;5969;50.780;7.726;2023-07-09T10:31:58;4.97;;;3.50;;
11823;SDS011;5969;50.780;7.726;2023-07-09T10:34:34;4.35;;;3.60;;
11823;SDS011;5969;50.780;7.726;2023-07-09T10:40:02;6.65;;;3.78;;
11823;SDS011;5969;50.780;7.726;2023-07-09T10:42:34;5.22;;;3.60;;
11823;SDS011;5969;50.780;7.726;2023-07-09T10:45:08;6.72;;;3.90;;
11823;SDS011;5969;50.780;7.726;2023-07-09T10:47:37;4.45;;;3.22;;
11823;SDS011;5969;50.780;7.726;2023-07-09T10:50:09;5.72;;;4.15;;
11823;SDS011;5969;50.780;7.726;2023-07-09T10:52:41;4.93;;;3.38;;
11823;SDS011;5969;50.780;7.726;2023-07-09T10:55:15;4.63;;;4.07;;
11823;SDS011;5969;50.780;7.726;2023-07-09T10:57:45;4.32;;;3.83;;
11823;SDS011;5969;50.780;7.726;2023-07-09T11:00:15;6.70;;;4.50;;
11823;SDS011;5969;50.780;7.726;2023-07-09T11:02:45;5.93;;;3.92;;
11823;SDS011;5969;50.780;7.726;2023-07-09T11:05:20;5.63;;;4.30;;
11823;SDS011;5969;50.780;7.726;2023-07-09T11:07:48;5.80;;;4.10;;
11823;SDS011;5969;50.780;7.726;2023-07-09T11:10:25;7.53;;;3.53;;
11823;SDS011;5969;50.780;7.726;2023-07-09T11:12:56;5.40;;;3.90;;
11823;SDS011;5969;50.780;7.726;2023-07-09T11:15:29;5.47;;;3.78;;
11823;SDS011;5969;50.780;7.726;2023-07-09T11:17:58;5.18;;;3.30;;
11823;SDS011;5969;50.780;7.726;2023-07-09T11:20:27;3.85;;;3.40;;
11823;SDS011;5969;50.780;7.726;2023-07-09T11:23:01;6.07;;;3.15;;
11823;SDS011;5969;50.780;7.726;2023-07-09T11:25:40;5.13;;;3.53;;
11823;SDS011;5969;50.780;7.726;2023-07-09T11:28:08;4.05;;;3.25;;
11823;SDS011;5969;50.780;7.726;2023-07-09T11:30:45;6.93;;;4.03;;
11823;SDS011;5969;50.780;7.726;2023-07-09T11:33:17;4.82;;;3.42;;
11823;SDS011;5969;50.780;7.726;2023-07-09T11:35:46;4.53;;;3.47;;
11823;SDS011;5969;50.780;7.726;2023-07-09T11:38:15;5.10;;;3.33;;
11823;SDS011;5969;50.780;7.726;2023-07-09T11:40:49;4.07;;;3.22;;
11823;SDS011;5969;50.780;7.726;2023-07-09T11:43:27;6.20;;;3.55;;
11823;SDS011;5969;50.780;7.726;2023-07-09T11:45:55;4.95;;;3.63;;
11823;SDS011;5969;50.780;7.726;2023-07-09T11:48:26;4.88;;;3.38;;
11823;SDS011;5969;50.780;7.726;2023-07-09T11:50:55;7.03;;;3.70;;
11823;SDS011;5969;50.780;7.726;2023-07-09T11:53:26;6.10;;;3.63;;
11823;SDS011;5969;50.780;7.726;2023-07-09T11:55:58;6.30;;;3.97;;
11823;SDS011;5969;50.780;7.726;2023-07-09T11:58:25;6.63;;;3.58;;
11823;SDS011;5969;50.780;7.726;2023-07-09T12:00:53;4.10;;;3.53;;
11823;SDS011;5969;50.780;7.726;2023-07-09T12:03:23;5.18;;;3.38;;
11823;SDS011;5969;50.780;7.726;2023-07-09T12:05:52;5.25;;;3.63;;
11823;SDS011;5969;50.780;7.726;2023-07-09T12:08:21;6.80;;;3.58;;
11823;SDS011;5969;50.780;7.726;2023-07-09T12:10:52;4.22;;;3.40;;
11823;SDS011;5969;50.780;7.726;2023-07-09T12:13:20;5.15;;;3.63;;
11823;SDS011;5969;50.780;7.726;2023-07-09T12:15:47;5.10;;;3.47;;
11823;SDS011;5969;50.780;7.726;2023-07-09T12:18:14;4.93;;;3.63;;
11823;SDS011;5969;50.780;7.726;2023-07-09T12:20:44;5.30;;;3.58;;
11823;SDS011;5969;50.780;7.726;2023-07-09T12:23:17;5.93;;;3.25;;
11823;SDS011;5969;50.780;7.726;2023-07-09T12:25:48;6.60;;;4.00;;
11823;SDS011;5969;50.780;7.726;2023-07-09T12:28:16;4.50;;;3.38;;
11823;SDS011;5969;50.780;7.726;2023-07-09T12:30:48;4.80;;;3.90;;
11823;SDS011;5969;50.780;7.726;2023-07-09T12:33:17;4.80;;;3.58;;
11823;SDS011;5969;50.780;7.726;2023-07-09T12:35:45;4.60;;;3.67;;
11823;SDS011;5969;50.780;7.726;2023-07-09T12:38:16;6.82;;;3.60;;
11823;SDS011;5969;50.780;7.726;2023-07-09T12:40:45;3.65;;;3.25;;
11823;SDS011;5969;50.780;7.726;2023-07-09T12:43:14;3.90;;;3.25;;
11823;SDS011;5969;50.780;7.726;2023-07-09T12:45:43;4.85;;;3.60;;
11823;SDS011;5969;50.780;7.726;2023-07-09T12:48:11;5.47;;;4.07;;
11823;SDS011;5969;50.780;7.726;2023-07-09T12:50:39;7.20;;;3.83;;
11823;SDS011;5969;50.780;7.726;2023-07-09T12:53:11;6.80;;;3.80;;
11823;SDS011;5969;50.780;7.726;2023-07-09T12:55:40;5.53;;;3.67;;
11823;SDS011;5969;50.780;7.726;2023-07-09T12:58:09;7.78;;;3.67;;
11823;SDS011;5969;50.780;7.726;2023-07-09T13:00:37;5.78;;;4.07;;
11823;SDS011;5969;50.780;7.726;2023-07-09T13:03:08;5.32;;;3.58;;
11823;SDS011;5969;50.780;7.726;2023-07-09T13:05:51;5.00;;;4.22;;
11823;SDS011;5969;50.780;7.726;2023-07-09T13:08:18;5.13;;;4.13;;
11823;SDS011;5969;50.780;7.726;2023-07-09T13:10:45;6.30;;;4.15;;
11823;SDS011;5969;50.780;7.726;2023-07-09T13:13:15;5.43;;;3.92;;
11823;SDS011;5969;50.780;7.726;2023-07-09T13:15:43;4.75;;;3.67;;
11823;SDS011;5969;50.780;7.726;2023-07-09T13:18:15;6.22;;;4.00;;
11823;SDS011;5969;50.780;7.726;2023-07-09T13:20:42;4.70;;;3.90;;
11823;SDS011;5969;50.780;7.726;2023-07-09T13:23:13;6.38;;;4.25;;
11823;SDS011;5969;50.780;7.726;2023-07-09T13:25:41;5.75;;;3.83;;
11823;SDS011;5969;50.780;7.726;2023-07-09T13:28:10;7.10;;;4.18;;
11823;SDS011;5969;50.780;7.726;2023-07-09T13:30:42;5.03;;;3.83;;
11823;SDS011;5969;50.780;7.726;2023-07-09T13:33:09;5.10;;;3.95;;
11823;SDS011;5969;50.780;7.726;2023-07-09T13:35:38;5.53;;;4.18;;
11823;SDS011;5969;50.780;7.726;2023-07-09T13:38:09;5.55;;;3.97;;
11823;SDS011;5969;50.780;7.726;2023-07-09T13:40:39;6.68;;;4.30;;
11823;SDS011;5969;50.780;7.726;2023-07-09T13:43:07;4.70;;;3.83;;
11823;SDS011;5969;50.780;7.726;2023-07-09T13:45:38;6.30;;;3.83;;
11823;SDS011;5969;50.780;7.726;2023-07-09T13:48:07;8.98;;;4.43;;
11823;SDS011;5969;50.780;7.726;2023-07-09T13:50:42;7.22;;;4.20;;
11823;SDS011;5969;50.780;7.726;2023-07-09T13:53:12;5.60;;;4.03;;
11823;SDS011;5969;50.780;7.726;2023-07-09T13:55:40;5.25;;;4.18;;
11823;SDS011;5969;50.780;7.726;2023-07-09T13:58:08;5.10;;;4.15;;
11823;SDS011;5969;50.780;7.726;2023-07-09T14:00:36;5.85;;;4.47;;
11823;SDS011;5969;50.780;7.726;2023-07-09T14:03:03;6.45;;;4.80;;
11823;SDS011;5969;50.780;7.726;2023-07-09T14:05:35;5.40;;;4.18;;
11823;SDS011;5969;50.780;7.726;2023-07-09T14:08:03;5.25;;;4.03;;
11823;SDS011;5969;50.780;7.726;2023-07-09T14:10:30;6.50;;;4.53;;
11823;SDS011;5969;50.780;7.726;2023-07-09T14:12:56;5.28;;;4.43;;
11823;SDS011;5969;50.780;7.726;2023-07-09T14:15:23;4.90;;;4.10;;
11823;SDS011;5969;50.780;7.726;2023-07-09T14:17:50;7.00;;;3.95;;
11823;SDS011;5969;50.780;7.726;2023-07-09T14:20:17;5.57;;;3.97;;
11823;SDS011;5969;50.780;7.726;2023-07-09T14:22:46;6.88;;;4.35;;
11823;SDS011;5969;50.780;7.726;2023-07-09T14:25:17;7.00;;;4.13;;
11823;SDS011;5969;50.780;7.726;2023-07-09T14:27:45;6.00;;;4.32;;
11823;SDS011;5969;50.780;7.726;2023-07-09T14:30:15;6.50;;;4.43;;
11823;SDS011;5969;50.780;7.726;2023-07-09T14:32:44;5.82;;;3.88;;
11823;SDS011;5969;50.780;7.726;2023-07-09T14:35:13;7.97;;;3.97;;
11823;SDS011;5969;50.780;7.726;2023-07-09T14:37:41;5.65;;;4.00;;
11823;SDS011;5969;50.780;7.726;2023-07-09T14:40:09;5.28;;;4.30;;
11823;SDS011;5969;50.780;7.726;2023-07-09T14:42:38;5.10;;;4.20;;
11823;SDS011;5969;50.780;7.726;2023-07-09T14:45:09;5.43;;;3.85;;
11823;SDS011;5969;50.780;7.726;2023-07-09T14:47:43;5.93;;;3.72;;
11823;SDS011;5969;50.780;7.726;2023-07-09T14:50:10;5.57;;;4.18;;
11823;SDS011;5969;50.780;7.726;2023-07-09T14:52:37;6.68;;;4.20;;
11823;SDS011;5969;50.780;7.726;2023-07-09T14:55:04;5.05;;;3.55;;
11823;SDS011;5969;50.780;7.726;2023-07-09T14:57:32;6.75;;;3.67;;
11823;SDS011;5969;50.780;7.726;2023-07-09T15:00:00;4.60;;;3.63;;
11823;SDS011;5969;50.780;7.726;2023-07-09T15:02:30;6.40;;;3.78;;
11823;SDS011;5969;50.780;7.726;2023-07-09T15:05:00;5.63;;;3.63;;
11823;SDS011;5969;50.780;7.726;2023-07-09T15:07:27;8.27;;;3.63;;
11823;SDS011;5969;50.780;7.726;2023-07-09T15:09:55;7.93;;;4.53;;
11823;SDS011;5969;50.780;7.726;2023-07-09T15:12:24;6.57;;;3.85;;
11823;SDS011;5969;50.780;7.726;2023-07-09T15:14:54;8.00;;;4.32;;
11823;SDS011;5969;50.780;7.726;2023-07-09T15:17:28;6.47;;;3.88;;
11823;SDS011;5969;50.780;7.726;2023-07-09T15:19:55;7.20;;;3.75;;
11823;SDS011;5969;50.780;7.726;2023-07-09T15:22:26;5.32;;;3.47;;